createdAt,value
2018-12-19T00:00:22.751Z,-4.80
2018-12-19T00:00:57.431Z,-4.70
2018-12-19T00:01:31.931Z,-4.70
2018-12-19T00:02:06.551Z,-4.60
2018-12-19T00:02:41.012Z,-4.60
2018-12-19T00:03:15.671Z,-4.60
2018-12-19T00:03:50.219Z,-4.60
2018-12-19T00:04:25.019Z,-4.50
2018-12-19T00:04:59.691Z,-4.50
2018-12-19T00:05:34.312Z,-4.50
2018-12-19T00:06:08.851Z,-4.50
2018-12-19T00:06:43.519Z,-4.40
2018-12-19T00:07:18.091Z,-4.40
2018-12-19T00:07:52.592Z,-4.40
2018-12-19T00:08:27.291Z,-4.30
2018-12-19T00:09:03.342Z,-4.30
2018-12-19T00:09:38.314Z,-4.30
2018-12-19T00:10:12.933Z,-4.20
2018-12-19T00:10:47.451Z,-4.20
2018-12-19T00:11:21.994Z,-4.20
2018-12-19T00:11:56.633Z,-4.20
2018-12-19T00:12:31.232Z,-4.20
2018-12-19T00:13:05.833Z,-4.20
2018-12-19T00:13:40.413Z,-4.20
2018-12-19T00:14:15.071Z,-4.20
2018-12-19T00:14:49.751Z,-4.10
2018-12-19T00:15:24.696Z,-4.10
2018-12-19T00:15:59.251Z,-4.10
2018-12-19T00:16:33.974Z,-4.10
2018-12-19T00:17:08.607Z,-4.10
2018-12-19T00:17:43.334Z,-4.10
2018-12-19T00:18:18.052Z,-4.10
2018-12-19T00:18:52.714Z,-4.10
2018-12-19T00:19:27.452Z,-4.10
2018-12-19T00:20:02.212Z,-4.10
2018-12-19T00:20:37.243Z,-4.10
2018-12-19T00:21:11.838Z,-4.10
2018-12-19T00:21:46.530Z,-4.10
2018-12-19T00:22:21.213Z,-4.10
2018-12-19T00:22:55.853Z,-4.10
2018-12-19T00:23:30.494Z,-4.10
2018-12-19T00:24:05.214Z,-4.10
2018-12-19T00:24:39.932Z,-4.10
2018-12-19T00:25:14.811Z,-4.10
2018-12-19T00:25:49.452Z,-4.10
2018-12-19T00:26:24.052Z,-4.10
2018-12-19T00:26:58.694Z,-4.10
2018-12-19T00:27:33.372Z,-4.10
2018-12-19T00:28:08.112Z,-4.20
2018-12-19T00:28:42.598Z,-4.20
2018-12-19T00:29:17.240Z,-4.20
2018-12-19T00:29:51.740Z,-4.30
2018-12-19T00:30:26.655Z,-4.30
2018-12-19T00:31:01.403Z,-4.30
2018-12-19T00:31:36.053Z,-4.30
2018-12-19T00:32:10.692Z,-4.30
2018-12-19T00:32:45.392Z,-4.30
2018-12-19T00:33:20.159Z,-4.40
2018-12-19T00:33:54.872Z,-4.40
2018-12-19T00:34:29.412Z,-4.40
2018-12-19T00:35:04.254Z,-4.50
2018-12-19T00:35:39.050Z,-4.40
2018-12-19T00:36:13.692Z,-4.40
2018-12-19T00:36:48.330Z,-4.40
2018-12-19T00:37:22.991Z,-4.40
2018-12-19T00:37:57.390Z,-4.40
2018-12-19T00:38:32.071Z,-4.40
2018-12-19T00:39:09.628Z,-4.40
2018-12-19T00:39:44.591Z,-4.40
2018-12-19T00:40:19.173Z,-4.40
2018-12-19T00:40:53.891Z,-4.40
2018-12-19T00:41:28.391Z,-4.40
2018-12-19T00:42:02.930Z,-4.40
2018-12-19T00:42:37.591Z,-4.40
2018-12-19T00:43:12.251Z,-4.40
2018-12-19T00:43:47.073Z,-4.40
2018-12-19T00:44:22.491Z,-4.40
2018-12-19T00:44:57.231Z,-4.40
2018-12-19T00:45:31.774Z,-4.50
2018-12-19T00:46:06.519Z,-4.50
2018-12-19T00:46:41.039Z,-4.50
2018-12-19T00:47:15.671Z,-4.50
2018-12-19T00:47:50.190Z,-4.50
2018-12-19T00:48:24.791Z,-4.40
2018-12-19T00:48:59.351Z,-4.50
2018-12-19T00:49:34.011Z,-4.40
2018-12-19T00:50:09.031Z,-4.50
2018-12-19T00:50:43.651Z,-4.40
2018-12-19T00:51:18.271Z,-4.40
2018-12-19T00:51:52.879Z,-4.40
2018-12-19T00:52:27.551Z,-4.50
2018-12-19T00:53:02.113Z,-4.40
2018-12-19T00:53:36.572Z,-4.50
2018-12-19T00:54:11.211Z,-4.50
2018-12-19T00:54:45.791Z,-4.50
2018-12-19T00:55:20.415Z,-4.40
2018-12-19T00:55:54.851Z,-4.50
2018-12-19T00:56:29.652Z,-4.50
2018-12-19T00:57:04.231Z,-4.50
2018-12-19T00:57:38.851Z,-4.40
2018-12-19T00:58:13.451Z,-4.40
2018-12-19T00:58:48.332Z,-4.40
2018-12-19T00:59:22.833Z,-4.30
2018-12-19T00:59:57.511Z,-4.30
2018-12-19T01:00:32.071Z,-4.30
2018-12-19T01:01:06.734Z,-4.20
2018-12-19T01:01:41.451Z,-4.20
2018-12-19T01:02:16.217Z,-4.20
2018-12-19T01:02:50.650Z,-4.20
2018-12-19T01:03:25.328Z,-4.20
2018-12-19T01:03:59.851Z,-4.20
2018-12-19T01:04:34.491Z,-4.20
2018-12-19T01:05:09.079Z,-4.10
2018-12-19T01:05:43.651Z,-4.10
2018-12-19T01:06:18.299Z,-4.10
2018-12-19T01:06:53.033Z,-4.10
2018-12-19T01:07:27.591Z,-4.10
2018-12-19T01:08:02.331Z,-4.10
2018-12-19T01:08:37.051Z,-4.10
2018-12-19T01:09:15.937Z,-4.00
2018-12-19T01:09:48.191Z,-4.10
2018-12-19T01:10:22.839Z,-4.10
2018-12-19T01:10:57.431Z,-4.10
2018-12-19T01:11:32.107Z,-4.10
2018-12-19T01:12:07.134Z,-4.10
2018-12-19T01:12:41.811Z,-4.10
2018-12-19T01:13:16.753Z,-4.10
2018-12-19T01:13:51.373Z,-4.10
2018-12-19T01:14:26.092Z,-4.10
2018-12-19T01:15:00.771Z,-4.10
2018-12-19T01:15:35.411Z,-4.10
2018-12-19T01:16:09.971Z,-4.10
2018-12-19T01:16:44.631Z,-4.10
2018-12-19T01:17:19.131Z,-4.20
2018-12-19T01:17:53.935Z,-4.20
2018-12-19T01:18:28.352Z,-4.20
2018-12-19T01:19:02.951Z,-4.20
2018-12-19T01:19:37.511Z,-4.20
2018-12-19T01:20:12.191Z,-4.10
2018-12-19T01:20:46.731Z,-4.10
2018-12-19T01:21:21.372Z,-4.10
2018-12-19T01:21:55.955Z,-4.00
2018-12-19T01:22:30.613Z,-4.00
2018-12-19T01:23:05.252Z,-4.00
2018-12-19T01:23:39.713Z,-4.00
2018-12-19T01:24:14.352Z,-4.00
2018-12-19T01:24:48.933Z,-4.00
2018-12-19T01:25:23.591Z,-4.00
2018-12-19T01:25:58.132Z,-4.00
2018-12-19T01:26:32.574Z,-4.00
2018-12-19T01:27:07.231Z,-4.00
2018-12-19T01:27:41.920Z,-4.00
2018-12-19T01:28:16.432Z,-4.00
2018-12-19T01:28:50.840Z,-4.00
2018-12-19T01:29:25.452Z,-4.00
2018-12-19T01:30:00.099Z,-4.00
2018-12-19T01:30:34.992Z,-4.10
2018-12-19T01:31:09.512Z,-4.10
2018-12-19T01:31:44.132Z,-4.10
2018-12-19T01:32:18.732Z,-4.10
2018-12-19T01:32:53.332Z,-4.10
2018-12-19T01:33:28.012Z,-4.10
2018-12-19T01:34:02.572Z,-4.00
2018-12-19T01:34:37.292Z,-4.10
2018-12-19T01:35:11.932Z,-4.10
2018-12-19T01:35:46.592Z,-4.10
2018-12-19T01:36:21.052Z,-4.10
2018-12-19T01:36:55.593Z,-4.00
2018-12-19T01:37:30.252Z,-4.00
2018-12-19T01:38:04.851Z,-4.00
2018-12-19T01:38:39.551Z,-4.00
2018-12-19T01:39:14.134Z,-4.00
2018-12-19T01:39:48.771Z,-4.00
2018-12-19T01:40:23.331Z,-4.00
2018-12-19T01:40:58.011Z,-4.00
2018-12-19T01:41:32.614Z,-4.00
2018-12-19T01:42:07.252Z,-4.10
2018-12-19T01:42:41.831Z,-4.10
2018-12-19T01:43:16.532Z,-4.10
2018-12-19T01:43:50.991Z,-4.20
2018-12-19T01:44:25.579Z,-4.20
2018-12-19T01:45:00.191Z,-4.20
2018-12-19T01:45:34.873Z,-4.20
2018-12-19T01:46:09.411Z,-4.20
2018-12-19T01:46:44.099Z,-4.20
2018-12-19T01:47:18.731Z,-4.20
2018-12-19T01:47:53.471Z,-4.30
2018-12-19T01:48:28.135Z,-4.30
2018-12-19T01:49:02.653Z,-4.30
2018-12-19T01:49:37.191Z,-4.30
2018-12-19T01:50:11.771Z,-4.30
2018-12-19T01:50:46.321Z,-4.40
2018-12-19T01:51:21.011Z,-4.40
2018-12-19T01:51:55.631Z,-4.40
2018-12-19T01:52:30.352Z,-4.40
2018-12-19T01:53:04.971Z,-4.40
2018-12-19T01:53:39.779Z,-4.40
2018-12-19T01:54:14.411Z,-4.40
2018-12-19T01:54:48.992Z,-4.30
2018-12-19T01:55:23.591Z,-4.30
2018-12-19T01:55:58.411Z,-4.30
2018-12-19T01:56:32.971Z,-4.30
2018-12-19T01:57:07.753Z,-4.30
2018-12-19T01:57:42.371Z,-4.40
2018-12-19T01:58:17.142Z,-4.40
2018-12-19T01:58:51.811Z,-4.40
2018-12-19T01:59:26.351Z,-4.30
2018-12-19T02:00:01.011Z,-4.30
2018-12-19T02:00:35.691Z,-4.20
2018-12-19T02:01:10.231Z,-4.20
2018-12-19T02:01:44.932Z,-4.20
2018-12-19T02:02:19.451Z,-4.20
2018-12-19T02:02:54.192Z,-4.20
2018-12-19T02:03:28.793Z,-4.20
2018-12-19T02:04:03.571Z,-4.30
2018-12-19T02:04:38.111Z,-4.20
2018-12-19T02:05:12.811Z,-4.20
2018-12-19T02:05:47.472Z,-4.20
2018-12-19T02:06:22.111Z,-4.20
2018-12-19T02:06:56.632Z,-4.20
2018-12-19T02:07:31.275Z,-4.20
2018-12-19T02:08:05.899Z,-4.20
2018-12-19T02:08:40.571Z,-4.20
2018-12-19T02:09:15.492Z,-4.20
2018-12-19T02:09:50.094Z,-4.20
2018-12-19T02:10:24.691Z,-4.20
2018-12-19T02:10:59.193Z,-4.10
2018-12-19T02:11:33.771Z,-4.10
2018-12-19T02:12:08.451Z,-4.10
2018-12-19T02:12:43.071Z,-4.10
2018-12-19T02:13:17.792Z,-4.20
2018-12-19T02:13:52.319Z,-4.20
2018-12-19T02:14:26.911Z,-4.20
2018-12-19T02:15:01.471Z,-4.20
2018-12-19T02:15:36.031Z,-4.20
2018-12-19T02:16:10.611Z,-4.30
2018-12-19T02:16:45.134Z,-4.30
2018-12-19T02:17:19.732Z,-4.40
2018-12-19T02:17:54.272Z,-4.40
2018-12-19T02:18:28.832Z,-4.40
2018-12-19T02:19:03.251Z,-4.40
2018-12-19T02:19:37.891Z,-4.50
2018-12-19T02:20:12.591Z,-4.50
2018-12-19T02:20:47.172Z,-4.50
2018-12-19T02:21:21.939Z,-4.50
2018-12-19T02:21:56.571Z,-4.60
2018-12-19T02:22:31.131Z,-4.60
2018-12-19T02:23:05.771Z,-4.60
2018-12-19T02:23:40.371Z,-4.70
2018-12-19T02:24:15.011Z,-4.70
2018-12-19T02:24:49.751Z,-4.70
2018-12-19T02:25:24.292Z,-4.70
2018-12-19T02:25:58.911Z,-4.80
2018-12-19T02:26:33.451Z,-4.80
2018-12-19T02:27:08.051Z,-4.80
2018-12-19T02:27:42.652Z,-4.90
2018-12-19T02:28:17.151Z,-4.90
2018-12-19T02:28:51.751Z,-4.90
2018-12-19T02:29:26.332Z,-5.00
2018-12-19T02:30:00.976Z,-5.00
2018-12-19T02:30:35.535Z,-5.00
2018-12-19T02:31:10.211Z,-5.00
2018-12-19T02:31:44.753Z,-5.10
2018-12-19T02:32:19.437Z,-5.10
2018-12-19T02:32:53.891Z,-5.20
2018-12-19T02:33:28.551Z,-5.20
2018-12-19T02:34:03.231Z,-5.20
2018-12-19T02:34:37.861Z,-5.20
2018-12-19T02:35:12.512Z,-5.30
2018-12-19T02:35:47.171Z,-5.30
2018-12-19T02:36:21.713Z,-5.40
2018-12-19T02:36:56.331Z,-5.40
2018-12-19T02:37:30.955Z,-5.40
2018-12-19T02:38:05.510Z,-5.50
2018-12-19T02:38:40.071Z,-5.50
2018-12-19T02:39:14.753Z,-5.60
2018-12-19T02:39:49.390Z,-5.60
2018-12-19T02:40:24.180Z,-5.60
2018-12-19T02:40:58.730Z,-5.60
2018-12-19T02:41:33.432Z,-5.70
2018-12-19T02:42:07.971Z,-5.80
2018-12-19T02:42:42.661Z,-5.80
2018-12-19T02:43:17.150Z,-5.90
2018-12-19T02:43:51.830Z,-6.00
2018-12-19T02:44:26.413Z,-6.00
2018-12-19T02:45:00.933Z,-6.00
2018-12-19T02:45:35.552Z,-6.10
2018-12-19T02:46:10.131Z,-6.10
2018-12-19T02:46:44.770Z,-6.10
2018-12-19T02:47:19.211Z,-6.20
2018-12-19T02:47:53.791Z,-6.30
2018-12-19T02:48:28.232Z,-6.30
2018-12-19T02:49:02.953Z,-6.30
2018-12-19T02:49:37.531Z,-6.30
2018-12-19T02:50:12.110Z,-6.40
2018-12-19T02:50:46.750Z,-6.40
2018-12-19T02:51:21.252Z,-6.50
2018-12-19T02:51:55.872Z,-6.50
2018-12-19T02:52:30.390Z,-6.60
2018-12-19T02:53:04.898Z,-6.60
2018-12-19T02:53:39.390Z,-6.60
2018-12-19T02:54:16.981Z,-6.60
2018-12-19T02:54:51.570Z,-6.70
2018-12-19T02:55:26.112Z,-6.70
2018-12-19T02:56:00.794Z,-6.70
2018-12-19T02:56:35.417Z,-6.70
2018-12-19T02:57:10.030Z,-6.70
2018-12-19T02:57:44.759Z,-6.70
2018-12-19T02:58:19.818Z,-6.80
2018-12-19T02:58:54.291Z,-6.80
2018-12-19T02:59:28.891Z,-6.80
2018-12-19T03:00:03.451Z,-6.90
2018-12-19T03:00:39.033Z,-6.90
2018-12-19T03:01:13.692Z,-6.90
2018-12-19T03:01:48.271Z,-7.00
2018-12-19T03:02:22.790Z,-7.00
2018-12-19T03:02:57.444Z,-7.00
2018-12-19T03:03:32.070Z,-7.10
2018-12-19T03:04:06.594Z,-7.10
2018-12-19T03:04:41.092Z,-7.20
2018-12-19T03:05:15.692Z,-7.20
2018-12-19T03:05:50.230Z,-7.20
2018-12-19T03:06:24.732Z,-7.30
2018-12-19T03:06:59.231Z,-7.30
2018-12-19T03:07:33.919Z,-7.40
2018-12-19T03:08:08.571Z,-7.40
2018-12-19T03:08:43.192Z,-7.50
2018-12-19T03:09:18.031Z,-7.50
2018-12-19T03:09:52.692Z,-7.50
2018-12-19T03:10:27.351Z,-7.60
2018-12-19T03:11:01.898Z,-7.60
2018-12-19T03:11:36.671Z,-7.60
2018-12-19T03:12:11.150Z,-7.70
2018-12-19T03:12:45.650Z,-7.70
2018-12-19T03:13:20.192Z,-7.80
2018-12-19T03:13:56.551Z,-7.80
2018-12-19T03:14:31.072Z,-7.80
2018-12-19T03:15:06.133Z,-7.70
2018-12-19T03:15:40.610Z,-7.70
2018-12-19T03:16:15.310Z,-7.70
2018-12-19T03:16:49.991Z,-7.70
2018-12-19T03:17:24.590Z,-7.80
2018-12-19T03:17:59.131Z,-7.80
2018-12-19T03:18:33.730Z,-7.90
2018-12-19T03:19:08.272Z,-7.90
2018-12-19T03:20:45.938Z,-7.90
2018-12-19T03:21:20.370Z,-7.90
2018-12-19T03:21:55.191Z,-7.90
2018-12-19T03:22:29.835Z,-7.80
2018-12-19T03:28:09.630Z,-7.80
2018-12-19T03:28:44.232Z,-7.90
2018-12-19T03:29:18.839Z,-7.90
2018-12-19T03:29:53.350Z,-7.90
2018-12-19T03:30:27.656Z,-8.00
2018-12-19T03:31:02.319Z,-8.00
2018-12-19T03:31:36.991Z,-8.00
2018-12-19T03:32:11.539Z,-8.00
2018-12-19T03:32:46.112Z,-8.10
2018-12-19T03:33:20.825Z,-8.10
2018-12-19T03:33:55.230Z,-8.10
2018-12-19T03:34:29.831Z,-8.10
2018-12-19T03:35:04.520Z,-8.10
2018-12-19T03:35:39.130Z,-8.20
2018-12-19T03:36:13.791Z,-8.20
2018-12-19T03:36:48.390Z,-8.20
2018-12-19T03:37:23.171Z,-8.20
2018-12-19T03:37:57.831Z,-8.20
2018-12-19T03:38:32.390Z,-8.30
2018-12-19T03:39:08.331Z,-8.30
2018-12-19T03:39:50.016Z,-8.30
2018-12-19T03:40:19.611Z,-8.30
2018-12-19T03:40:54.191Z,-8.30
2018-12-19T03:41:28.961Z,-8.40
2018-12-19T03:42:03.590Z,-8.40
2018-12-19T03:42:38.190Z,-8.50
2018-12-19T03:43:12.731Z,-8.50
2018-12-19T03:43:47.566Z,-8.50
2018-12-19T03:44:22.130Z,-8.50
2018-12-19T03:44:56.754Z,-8.50
2018-12-19T03:45:31.258Z,-8.50
2018-12-19T03:46:05.910Z,-8.50
2018-12-19T03:46:40.481Z,-8.50
2018-12-19T03:47:15.078Z,-8.50
2018-12-19T03:47:49.690Z,-8.50
2018-12-19T03:48:29.330Z,-8.60
2018-12-19T03:49:04.111Z,-8.60
2018-12-19T03:49:38.791Z,-8.60
2018-12-19T03:50:13.498Z,-8.70
2018-12-19T03:50:47.970Z,-8.60
2018-12-19T03:51:22.638Z,-8.70
2018-12-19T03:51:57.194Z,-8.70
2018-12-19T03:52:31.792Z,-8.70
2018-12-19T03:53:06.430Z,-8.70
2018-12-19T03:53:41.098Z,-8.70
2018-12-19T03:54:15.950Z,-8.70
2018-12-19T03:54:50.570Z,-8.70
2018-12-19T03:55:25.130Z,-8.70
2018-12-19T03:55:59.791Z,-8.70
2018-12-19T03:56:34.390Z,-8.70
2018-12-19T03:57:09.178Z,-8.60
2018-12-19T03:57:43.850Z,-8.70
2018-12-19T03:58:18.681Z,-8.70
2018-12-19T03:58:53.311Z,-8.70
2018-12-19T03:59:28.093Z,-8.70
2018-12-19T04:00:02.651Z,-8.70
2018-12-19T04:00:37.339Z,-8.70
2018-12-19T04:01:11.912Z,-8.70
2018-12-19T04:01:46.598Z,-8.60
2018-12-19T04:02:21.411Z,-8.60
2018-12-19T04:02:56.051Z,-8.60
2018-12-19T04:03:30.631Z,-8.60
2018-12-19T04:04:05.306Z,-8.60
2018-12-19T04:04:39.971Z,-8.60
2018-12-19T04:05:14.651Z,-8.60
2018-12-19T04:05:49.292Z,-8.60
2018-12-19T04:06:24.032Z,-8.50
2018-12-19T04:06:58.771Z,-8.50
2018-12-19T04:07:33.411Z,-8.50
2018-12-19T04:08:07.971Z,-8.40
2018-12-19T04:08:42.632Z,-8.40
2018-12-19T04:09:17.332Z,-8.40
2018-12-19T04:09:57.704Z,-8.40
2018-12-19T04:10:28.771Z,-8.40
2018-12-19T04:11:03.435Z,-8.40
2018-12-19T04:11:38.211Z,-8.50
2018-12-19T04:12:12.792Z,-8.40
2018-12-19T04:12:47.473Z,-8.50
2018-12-19T04:13:22.267Z,-8.50
2018-12-19T04:13:56.891Z,-8.50
2018-12-19T04:14:31.491Z,-8.50
2018-12-19T04:15:06.520Z,-8.50
2018-12-19T04:15:41.175Z,-8.50
2018-12-19T04:16:15.851Z,-8.50
2018-12-19T04:16:50.411Z,-8.50
2018-12-19T04:17:25.314Z,-8.50
2018-12-19T04:18:00.011Z,-8.50
2018-12-19T04:18:34.631Z,-8.60
2018-12-19T04:19:09.073Z,-8.60
2018-12-19T04:19:43.791Z,-8.60
2018-12-19T04:20:18.432Z,-8.70
2018-12-19T04:20:53.172Z,-8.70
2018-12-19T04:21:27.691Z,-8.70
2018-12-19T04:22:02.553Z,-8.70
2018-12-19T04:22:37.300Z,-8.70
2018-12-19T04:23:12.072Z,-8.70
2018-12-19T04:23:46.664Z,-8.80
2018-12-19T04:24:21.392Z,-8.80
2018-12-19T04:24:56.139Z,-8.80
2018-12-19T04:25:30.971Z,-8.80
2018-12-19T04:26:05.754Z,-8.80
2018-12-19T04:26:40.379Z,-8.80
2018-12-19T04:27:15.051Z,-8.80
2018-12-19T04:27:49.757Z,-8.80
2018-12-19T04:28:24.520Z,-8.90
2018-12-19T04:28:59.051Z,-8.80
2018-12-19T04:29:34.242Z,-8.80
2018-12-19T04:30:09.072Z,-8.80
2018-12-19T04:30:43.839Z,-8.80
2018-12-19T04:31:18.562Z,-8.70
2018-12-19T04:31:53.493Z,-8.70
2018-12-19T04:32:28.292Z,-8.70
2018-12-19T04:33:03.054Z,-8.60
2018-12-19T04:33:37.693Z,-8.60
2018-12-19T04:34:12.492Z,-8.50
2018-12-19T04:34:47.464Z,-8.50
2018-12-19T04:35:22.172Z,-8.50
2018-12-19T04:35:57.093Z,-8.40
2018-12-19T04:36:31.792Z,-8.40
2018-12-19T04:37:06.452Z,-8.40
2018-12-19T04:37:41.183Z,-8.30
2018-12-19T04:38:15.904Z,-8.30
2018-12-19T04:38:50.472Z,-8.30
2018-12-19T04:39:25.426Z,-8.30
2018-12-19T04:40:05.399Z,-8.30
2018-12-19T04:40:36.757Z,-8.30
2018-12-19T04:41:11.592Z,-8.30
2018-12-19T04:41:46.251Z,-8.40
2018-12-19T04:42:20.831Z,-8.40
2018-12-19T04:42:55.435Z,-8.40
2018-12-19T04:43:30.326Z,-8.40
2018-12-19T04:44:05.511Z,-8.40
2018-12-19T04:44:40.133Z,-8.40
2018-12-19T04:45:14.691Z,-8.40
2018-12-19T04:45:49.472Z,-8.50
2018-12-19T04:46:24.432Z,-8.50
2018-12-19T04:46:59.231Z,-8.50
2018-12-19T04:47:33.873Z,-8.50
2018-12-19T04:48:08.533Z,-8.60
2018-12-19T04:48:43.259Z,-8.60
2018-12-19T04:49:18.092Z,-8.70
2018-12-19T04:49:52.680Z,-8.70
2018-12-19T04:50:30.659Z,-8.70
2018-12-19T04:51:05.492Z,-8.70
2018-12-19T04:51:40.332Z,-8.80
2018-12-19T04:52:15.063Z,-8.70
2018-12-19T04:52:49.652Z,-8.80
2018-12-19T04:53:24.334Z,-8.80
2018-12-19T04:53:59.132Z,-8.80
2018-12-19T04:54:33.772Z,-8.80
2018-12-19T04:55:08.573Z,-8.80
2018-12-19T04:55:43.131Z,-8.80
2018-12-19T04:56:17.776Z,-8.80
2018-12-19T04:56:52.752Z,-8.80
2018-12-19T04:57:27.572Z,-8.90
2018-12-19T04:58:02.273Z,-8.90
2018-12-19T04:58:37.877Z,-8.90
2018-12-19T04:59:12.596Z,-8.90
2018-12-19T04:59:47.272Z,-8.90
2018-12-19T05:00:21.934Z,-8.90
2018-12-19T05:00:56.552Z,-8.90
2018-12-19T05:01:31.220Z,-8.90
2018-12-19T05:02:06.032Z,-8.90
2018-12-19T05:02:40.452Z,-8.90
2018-12-19T05:03:15.155Z,-8.90
2018-12-19T05:03:49.752Z,-8.90
2018-12-19T05:04:24.432Z,-8.90
2018-12-19T05:04:59.439Z,-8.80
2018-12-19T05:05:34.175Z,-8.80
2018-12-19T05:06:08.733Z,-8.80
2018-12-19T05:06:43.372Z,-8.80
2018-12-19T05:07:18.953Z,-8.80
2018-12-19T05:07:53.792Z,-8.80
2018-12-19T05:08:28.519Z,-8.80
2018-12-19T05:09:03.052Z,-8.80
2018-12-19T05:09:37.793Z,-8.80
2018-12-19T05:10:12.612Z,-8.80
2018-12-19T05:10:47.572Z,-8.70
2018-12-19T05:11:22.232Z,-8.70
2018-12-19T05:11:56.992Z,-8.80
2018-12-19T05:12:31.852Z,-8.80
2018-12-19T05:13:06.620Z,-8.80
2018-12-19T05:13:41.291Z,-8.80
2018-12-19T05:14:16.292Z,-8.90
2018-12-19T05:14:50.972Z,-8.90
2018-12-19T05:15:25.632Z,-8.90
2018-12-19T05:16:00.314Z,-9.00
2018-12-19T05:16:34.972Z,-9.00
2018-12-19T05:17:09.773Z,-9.00
2018-12-19T05:17:44.632Z,-9.00
2018-12-19T05:18:19.373Z,-9.00
2018-12-19T05:18:53.871Z,-8.90
2018-12-19T05:19:28.572Z,-8.90
2018-12-19T05:20:03.233Z,-8.90
2018-12-19T05:20:38.052Z,-8.90
2018-12-19T05:21:12.732Z,-8.90
2018-12-19T05:21:47.552Z,-8.80
2018-12-19T05:22:22.052Z,-8.90
2018-12-19T05:22:56.904Z,-8.90
2018-12-19T05:23:31.731Z,-8.90
2018-12-19T05:24:06.352Z,-9.00
2018-12-19T05:24:41.035Z,-9.00
2018-12-19T05:25:15.932Z,-9.00
2018-12-19T05:25:50.613Z,-9.00
2018-12-19T05:26:25.272Z,-9.00
2018-12-19T05:26:59.952Z,-9.00
2018-12-19T05:27:34.441Z,-9.00
2018-12-19T05:28:09.213Z,-9.10
2018-12-19T05:28:44.012Z,-9.00
2018-12-19T05:29:18.740Z,-9.00
2018-12-19T05:29:53.435Z,-9.10
2018-12-19T05:30:28.032Z,-9.10
2018-12-19T05:31:02.834Z,-9.10
2018-12-19T05:31:37.571Z,-9.10
2018-12-19T05:32:12.276Z,-9.10
2018-12-19T05:32:47.091Z,-9.20
2018-12-19T05:33:21.912Z,-9.20
2018-12-19T05:33:56.591Z,-9.20
2018-12-19T05:34:31.357Z,-9.20
2018-12-19T05:35:06.692Z,-9.20
2018-12-19T05:35:41.372Z,-9.30
2018-12-19T05:36:16.111Z,-9.30
2018-12-19T05:36:50.960Z,-9.30
2018-12-19T05:37:25.871Z,-9.30
2018-12-19T05:38:00.721Z,-9.30
2018-12-19T05:38:35.372Z,-9.30
2018-12-19T05:39:10.040Z,-9.40
2018-12-19T05:39:44.792Z,-9.40
2018-12-19T05:40:19.405Z,-9.40
2018-12-19T05:40:54.091Z,-9.40
2018-12-19T05:41:28.934Z,-9.40
2018-12-19T05:42:03.600Z,-9.40
2018-12-19T05:42:38.313Z,-9.40
2018-12-19T05:43:12.952Z,-9.50
2018-12-19T05:43:47.512Z,-9.50
2018-12-19T05:44:22.160Z,-9.50
2018-12-19T05:44:56.794Z,-9.50
2018-12-19T05:45:31.452Z,-9.50
2018-12-19T05:46:06.032Z,-9.50
2018-12-19T05:46:40.693Z,-9.50
2018-12-19T05:47:15.361Z,-9.50
2018-12-19T05:47:50.022Z,-9.50
2018-12-19T05:48:24.732Z,-9.40
2018-12-19T05:48:59.457Z,-9.40
2018-12-19T05:49:34.494Z,-9.40
2018-12-19T05:50:09.392Z,-9.40
2018-12-19T05:50:44.100Z,-9.40
2018-12-19T05:51:18.832Z,-9.40
2018-12-19T05:51:53.820Z,-9.40
2018-12-19T05:52:28.613Z,-9.40
2018-12-19T05:53:03.352Z,-9.40
2018-12-19T05:53:38.113Z,-9.40
2018-12-19T05:54:12.840Z,-9.40
2018-12-19T05:54:47.914Z,-9.40
2018-12-19T05:55:22.813Z,-9.40
2018-12-19T05:55:57.600Z,-9.30
2018-12-19T05:56:32.314Z,-9.30
2018-12-19T05:57:07.103Z,-9.30
2018-12-19T05:57:41.803Z,-9.30
2018-12-19T05:58:16.475Z,-9.30
2018-12-19T05:58:51.142Z,-9.30
2018-12-19T05:59:25.835Z,-9.30
2018-12-19T06:00:00.512Z,-9.30
2018-12-19T06:00:35.403Z,-9.30
2018-12-19T06:01:10.121Z,-9.30
2018-12-19T06:01:44.753Z,-9.30
2018-12-19T06:02:19.452Z,-9.30
2018-12-19T06:02:53.792Z,-9.30
2018-12-19T06:03:28.092Z,-9.20
2018-12-19T06:04:02.733Z,-9.20
2018-12-19T06:04:37.460Z,-9.20
2018-12-19T06:05:12.172Z,-9.20
2018-12-19T06:05:46.911Z,-9.20
2018-12-19T06:06:21.553Z,-9.20
2018-12-19T06:06:56.260Z,-9.20
2018-12-19T06:07:30.892Z,-9.20
2018-12-19T06:08:05.572Z,-9.20
2018-12-19T06:08:40.133Z,-9.20
2018-12-19T06:09:14.833Z,-9.20
2018-12-19T06:09:49.453Z,-9.20
2018-12-19T06:10:26.316Z,-9.20
2018-12-19T06:11:00.920Z,-9.30
2018-12-19T06:11:35.520Z,-9.30
2018-12-19T06:12:10.140Z,-9.30
2018-12-19T06:12:44.771Z,-9.30
2018-12-19T06:13:19.392Z,-9.40
2018-12-19T06:13:53.972Z,-9.30
2018-12-19T06:14:28.721Z,-9.30
2018-12-19T06:15:03.753Z,-9.30
2018-12-19T06:15:38.312Z,-9.30
2018-12-19T06:16:13.052Z,-9.30
2018-12-19T06:16:47.832Z,-9.30
2018-12-19T06:17:22.413Z,-9.30
2018-12-19T06:17:57.073Z,-9.40
2018-12-19T06:18:31.552Z,-9.30
2018-12-19T06:19:06.213Z,-9.30
2018-12-19T06:19:40.832Z,-9.30
2018-12-19T06:20:15.512Z,-9.20
2018-12-19T06:20:50.152Z,-9.20
2018-12-19T06:21:24.876Z,-9.10
2018-12-19T06:21:59.553Z,-9.20
2018-12-19T06:22:34.252Z,-9.10
2018-12-19T06:23:08.852Z,-9.10
2018-12-19T06:23:43.512Z,-9.10
2018-12-19T06:24:18.153Z,-9.00
2018-12-19T06:24:53.012Z,-9.00
2018-12-19T06:25:27.573Z,-9.00
2018-12-19T06:26:02.092Z,-9.00
2018-12-19T06:26:36.732Z,-8.90
2018-12-19T06:27:11.411Z,-8.90
2018-12-19T06:27:46.012Z,-8.90
2018-12-19T06:28:20.653Z,-8.90
2018-12-19T06:28:55.092Z,-8.80
2018-12-19T06:29:29.772Z,-8.80
2018-12-19T06:30:04.712Z,-8.70
2018-12-19T06:30:39.380Z,-8.70
2018-12-19T06:31:14.012Z,-8.70
2018-12-19T06:31:48.511Z,-8.70
2018-12-19T06:32:23.171Z,-8.60
2018-12-19T06:32:57.792Z,-8.60
2018-12-19T06:33:32.452Z,-8.60
2018-12-19T06:34:07.542Z,-8.50
2018-12-19T06:34:42.193Z,-8.50
2018-12-19T06:35:16.651Z,-8.50
2018-12-19T06:35:51.332Z,-8.40
2018-12-19T06:36:26.183Z,-8.40
2018-12-19T06:37:00.952Z,-8.40
2018-12-19T06:37:35.552Z,-8.40
2018-12-19T06:38:10.116Z,-8.30
2018-12-19T06:38:44.672Z,-8.30
2018-12-19T06:39:19.356Z,-8.30
2018-12-19T06:39:54.051Z,-8.30
2018-12-19T06:40:32.611Z,-8.20
2018-12-19T06:41:05.471Z,-8.20
2018-12-19T06:41:40.032Z,-8.20
2018-12-19T06:42:14.773Z,-8.20
2018-12-19T06:42:49.372Z,-8.20
2018-12-19T06:43:24.052Z,-8.20
2018-12-19T06:43:58.571Z,-8.20
2018-12-19T06:44:33.272Z,-8.10
2018-12-19T06:45:08.791Z,-8.10
2018-12-19T06:45:43.492Z,-8.10
2018-12-19T06:46:18.141Z,-8.10
2018-12-19T06:46:52.812Z,-8.10
2018-12-19T06:47:27.431Z,-8.10
2018-12-19T06:48:01.919Z,-8.10
2018-12-19T06:48:36.551Z,-8.10
2018-12-19T06:49:11.252Z,-8.10
2018-12-19T06:49:45.892Z,-8.10
2018-12-19T06:50:20.552Z,-8.00
2018-12-19T06:50:55.192Z,-8.00
2018-12-19T06:51:29.772Z,-8.00
2018-12-19T06:52:04.412Z,-8.00
2018-12-19T06:52:39.032Z,-8.00
2018-12-19T06:53:13.612Z,-8.00
2018-12-19T06:53:48.212Z,-8.00
2018-12-19T06:54:22.733Z,-8.00
2018-12-19T06:54:57.531Z,-8.00
2018-12-19T06:55:32.051Z,-8.00
2018-12-19T06:56:06.717Z,-8.00
2018-12-19T06:56:41.292Z,-8.00
2018-12-19T06:57:15.912Z,-8.00
2018-12-19T06:57:50.571Z,-8.00
2018-12-19T06:58:25.171Z,-8.10
2018-12-19T06:58:59.854Z,-8.10
2018-12-19T06:59:34.555Z,-8.10
2018-12-19T07:00:09.891Z,-8.10
2018-12-19T07:00:44.431Z,-8.10
2018-12-19T07:01:19.071Z,-8.10
2018-12-19T07:01:53.684Z,-8.10
2018-12-19T07:02:28.354Z,-8.10
2018-12-19T07:03:02.951Z,-8.10
2018-12-19T07:03:37.631Z,-8.10
2018-12-19T07:04:12.174Z,-8.10
2018-12-19T07:04:46.632Z,-8.10
2018-12-19T07:05:21.245Z,-8.10
2018-12-19T07:05:55.725Z,-8.10
2018-12-19T07:06:30.325Z,-8.10
2018-12-19T07:07:04.826Z,-8.20
2018-12-19T07:07:39.733Z,-8.20
2018-12-19T07:08:14.345Z,-8.20
2018-12-19T07:08:48.965Z,-8.10
2018-12-19T07:09:23.526Z,-8.10
2018-12-19T07:09:58.005Z,-8.10
2018-12-19T07:10:38.918Z,-8.10
2018-12-19T07:11:09.225Z,-8.10
2018-12-19T07:11:43.745Z,-8.10
2018-12-19T07:12:18.087Z,-8.00
2018-12-19T07:12:52.907Z,-8.00
2018-12-19T07:13:27.486Z,-8.00
2018-12-19T07:14:02.087Z,-8.00
2018-12-19T07:14:39.065Z,-8.00
2018-12-19T07:15:13.634Z,-8.00
2018-12-19T07:15:48.325Z,-8.10
2018-12-19T07:16:22.785Z,-8.10
2018-12-19T07:16:57.206Z,-8.10
2018-12-19T07:17:31.885Z,-8.10
2018-12-19T07:18:06.428Z,-8.10
2018-12-19T07:18:41.105Z,-8.10
2018-12-19T07:19:15.545Z,-8.10
2018-12-19T07:19:50.045Z,-8.00
2018-12-19T07:20:24.646Z,-8.00
2018-12-19T07:20:59.586Z,-7.90
2018-12-19T07:21:34.185Z,-7.90
2018-12-19T07:22:08.706Z,-7.80
2018-12-19T07:22:43.326Z,-7.80
2018-12-19T07:23:17.905Z,-7.70
2018-12-19T07:23:52.606Z,-7.70
2018-12-19T07:24:27.187Z,-7.70
2018-12-19T07:25:01.886Z,-7.60
2018-12-19T07:25:36.485Z,-7.60
2018-12-19T07:26:11.048Z,-7.60
2018-12-19T07:26:46.090Z,-7.60
2018-12-19T07:27:20.734Z,-7.60
2018-12-19T07:27:55.365Z,-7.50
2018-12-19T07:28:30.055Z,-7.50
2018-12-19T07:29:04.805Z,-7.50
2018-12-19T07:29:39.465Z,-7.50
2018-12-19T07:30:13.965Z,-7.50
2018-12-19T07:30:48.385Z,-7.50
2018-12-19T07:31:23.025Z,-7.50
2018-12-19T07:31:57.505Z,-7.40
2018-12-19T07:32:32.108Z,-7.40
2018-12-19T07:33:06.626Z,-7.40